createdAt,value
2018-06-11T00:00:14.322Z,43.60
2018-06-11T00:01:14.296Z,45.90
2018-06-11T00:02:14.254Z,43.70
2018-06-11T00:03:14.269Z,42.20
2018-06-11T00:04:14.190Z,39.70
2018-06-11T00:05:14.219Z,91.70
2018-06-11T00:06:14.117Z,33.50
2018-06-11T00:07:14.093Z,32.50
2018-06-11T00:08:14.059Z,36.50
2018-06-11T00:09:14.059Z,38.20
2018-06-11T00:10:14.017Z,39.10
2018-06-11T00:11:14.046Z,42.70
2018-06-11T00:12:13.936Z,43.40
2018-06-11T00:13:13.857Z,42.00
2018-06-11T00:14:13.862Z,38.60
2018-06-11T00:15:13.835Z,39.00
2018-06-11T00:16:13.803Z,40.10
2018-06-11T00:17:13.752Z,40.60
2018-06-11T00:18:13.755Z,41.60
2018-06-11T00:19:13.673Z,38.60
2018-06-11T00:20:13.644Z,37.60
2018-06-11T00:21:13.649Z,39.40
2018-06-11T00:22:13.557Z,40.50
2018-06-11T00:23:13.561Z,38.60
2018-06-11T00:24:13.488Z,39.20
2018-06-11T00:25:13.497Z,39.00
2018-06-11T00:26:13.474Z,39.60
2018-06-11T00:27:13.512Z,37.70
2018-06-11T00:28:13.353Z,34.00
2018-06-11T00:29:13.360Z,36.30
2018-06-11T00:30:13.304Z,37.20
2018-06-11T00:31:13.254Z,41.40
2018-06-11T00:32:13.240Z,42.30
2018-06-11T00:33:13.182Z,40.90
2018-06-11T00:34:13.185Z,39.10
2018-06-11T00:35:13.134Z,48.30
2018-06-11T00:36:13.094Z,42.80
2018-06-11T00:37:13.069Z,41.60
2018-06-11T00:38:13.048Z,40.60
2018-06-11T00:39:12.989Z,78.30
2018-06-11T00:40:12.961Z,39.90
2018-06-11T00:41:12.964Z,45.80
2018-06-11T00:42:12.878Z,52.30
2018-06-11T00:43:12.865Z,45.20
2018-06-11T00:44:12.821Z,43.90
2018-06-11T00:45:12.810Z,43.10
2018-06-11T00:46:12.810Z,41.10
2018-06-11T00:47:12.713Z,44.60
2018-06-11T00:48:12.705Z,55.40
2018-06-11T00:49:12.670Z,46.50
2018-06-11T00:50:12.734Z,48.70
2018-06-11T00:51:12.698Z,67.50
2018-06-11T00:52:12.588Z,84.30
2018-06-11T00:53:12.591Z,52.10
2018-06-11T00:54:12.476Z,89.50
2018-06-11T00:55:12.524Z,138.50
2018-06-11T00:56:12.473Z,104.40
2018-06-11T00:57:12.406Z,55.60
2018-06-11T00:58:12.366Z,99.40
2018-06-11T00:59:12.305Z,117.50
2018-06-11T01:00:12.295Z,125.90
2018-06-11T01:01:12.250Z,127.30
2018-06-11T01:02:12.206Z,52.20
2018-06-11T01:03:12.185Z,76.00
2018-06-11T01:04:12.207Z,54.00
2018-06-11T01:05:12.172Z,55.00
2018-06-11T01:06:12.248Z,51.00
2018-06-11T01:07:12.120Z,51.90
2018-06-11T01:08:12.036Z,50.90
2018-06-11T01:09:12.039Z,51.50
2018-06-11T01:10:11.989Z,54.50
2018-06-11T01:11:11.942Z,55.20
2018-06-11T01:12:11.903Z,49.30
2018-06-11T01:13:11.894Z,49.70
2018-06-11T01:14:11.811Z,50.10
2018-06-11T01:15:11.810Z,48.10
2018-06-11T01:16:11.783Z,53.30
2018-06-11T01:17:11.698Z,51.60
2018-06-11T01:18:12.388Z,50.60
2018-06-11T01:19:11.630Z,50.30
2018-06-11T01:20:11.613Z,50.60
2018-06-11T01:21:11.578Z,55.90
2018-06-11T01:22:11.529Z,52.40
2018-06-11T01:23:11.500Z,51.50
2018-06-11T01:24:11.504Z,51.40
2018-06-11T01:25:11.415Z,49.60
2018-06-11T01:26:11.444Z,51.10
2018-06-11T01:27:11.384Z,52.30
2018-06-11T01:28:11.404Z,46.20
2018-06-11T01:29:11.304Z,48.30
2018-06-11T01:30:11.298Z,48.00
2018-06-11T01:31:11.293Z,46.10
2018-06-11T01:32:11.196Z,46.70
2018-06-11T01:33:11.203Z,50.60
2018-06-11T01:34:11.148Z,50.50
2018-06-11T01:35:11.102Z,49.80
2018-06-11T01:36:11.151Z,50.60
2018-06-11T01:37:11.035Z,53.30
2018-06-11T01:38:11.048Z,51.90
2018-06-11T01:39:10.983Z,52.00
2018-06-11T01:40:10.932Z,49.50
2018-06-11T01:41:10.894Z,48.80
2018-06-11T01:42:10.905Z,47.70
2018-06-11T01:43:10.890Z,46.70
2018-06-11T01:44:10.824Z,47.70
2018-06-11T01:45:10.804Z,47.80
2018-06-11T01:46:10.755Z,47.40
2018-06-11T01:47:10.750Z,46.10
2018-06-11T01:48:10.703Z,41.10
2018-06-11T01:49:10.658Z,46.00
2018-06-11T01:50:10.591Z,49.20
2018-06-11T01:51:10.584Z,50.80
2018-06-11T01:52:10.536Z,50.70
2018-06-11T01:53:10.547Z,48.80
2018-06-11T01:54:10.474Z,45.70
2018-06-11T01:55:10.442Z,46.80
2018-06-11T01:56:10.450Z,48.10
2018-06-11T01:57:10.383Z,49.20
2018-06-11T01:58:10.379Z,49.10
2018-06-11T01:59:10.347Z,45.20
2018-06-11T02:00:10.264Z,46.40
2018-06-11T02:01:10.262Z,48.70
2018-06-11T02:02:10.200Z,48.80
2018-06-11T02:03:10.174Z,48.60
2018-06-11T02:04:10.164Z,48.20
2018-06-11T02:05:10.090Z,48.80
2018-06-11T02:06:10.065Z,47.80
2018-06-11T02:07:10.071Z,46.80
2018-06-11T02:08:10.050Z,47.50
2018-06-11T02:09:09.999Z,49.20
2018-06-11T02:10:09.970Z,46.10
2018-06-11T02:11:09.887Z,47.60
2018-06-11T02:12:09.860Z,46.70
2018-06-11T02:13:09.823Z,46.70
2018-06-11T02:14:09.865Z,46.20
2018-06-11T02:15:09.821Z,45.80
2018-06-11T02:16:09.775Z,45.50
2018-06-11T02:17:09.715Z,46.90
2018-06-11T02:18:09.662Z,45.90
2018-06-11T02:19:09.687Z,48.20
2018-06-11T02:20:09.592Z,45.30
2018-06-11T02:21:09.603Z,44.80
2018-06-11T02:22:09.544Z,44.10
2018-06-11T02:23:09.542Z,45.50
2018-06-11T02:24:09.533Z,45.00
2018-06-11T02:25:09.423Z,46.00
2018-06-11T02:26:09.913Z,46.30
2018-06-11T02:27:09.383Z,49.10
2018-06-11T02:28:09.353Z,49.00
2018-06-11T02:29:09.355Z,45.80
2018-06-11T02:30:09.290Z,44.60
2018-06-11T02:31:09.259Z,43.50
2018-06-11T02:32:09.299Z,43.70
2018-06-11T02:33:09.182Z,41.90
2018-06-11T02:34:09.174Z,42.80
2018-06-11T02:35:09.127Z,43.10
2018-06-11T02:36:09.119Z,43.70
2018-06-11T02:37:09.115Z,44.90
2018-06-11T02:38:09.107Z,45.70
2018-06-11T02:39:08.987Z,44.60
2018-06-11T02:40:08.947Z,46.10
2018-06-11T02:41:08.894Z,45.80
2018-06-11T02:42:09.418Z,42.80
2018-06-11T02:43:08.834Z,42.10
2018-06-11T02:44:08.879Z,40.80
2018-06-11T02:45:08.888Z,41.30
2018-06-11T02:46:08.761Z,40.20
2018-06-11T02:47:08.722Z,42.70
2018-06-11T02:48:08.679Z,41.80
2018-06-11T02:49:08.659Z,41.30
2018-06-11T02:50:08.624Z,40.60
2018-06-11T02:51:08.614Z,40.30
2018-06-11T02:52:08.582Z,42.10
2018-06-11T02:53:08.541Z,43.10
2018-06-11T02:54:08.476Z,43.40
2018-06-11T02:55:08.443Z,43.10
2018-06-11T02:56:08.422Z,42.50
2018-06-11T02:57:08.399Z,42.70
2018-06-11T02:58:08.400Z,43.70
2018-06-11T02:59:08.355Z,44.10
2018-06-11T03:00:08.296Z,44.60
2018-06-11T03:01:08.260Z,44.20
2018-06-11T03:02:08.303Z,42.40
2018-06-11T03:03:08.164Z,41.30
2018-06-11T03:04:08.158Z,40.20
2018-06-11T03:05:08.142Z,40.40
2018-06-11T03:06:08.081Z,38.90
2018-06-11T03:07:08.051Z,39.60
2018-06-11T03:08:08.145Z,40.30
2018-06-11T03:09:07.969Z,39.20
2018-06-11T03:10:07.981Z,38.30
2018-06-11T03:11:07.969Z,38.20
2018-06-11T03:12:07.871Z,39.70
2018-06-11T03:13:07.899Z,39.60
2018-06-11T03:14:07.821Z,40.20
2018-06-11T03:15:07.795Z,40.70
2018-06-11T03:16:07.764Z,40.90
2018-06-11T03:17:07.736Z,40.70
2018-06-11T03:18:07.717Z,39.50
2018-06-11T03:19:07.641Z,38.50
2018-06-11T03:20:07.612Z,39.20
2018-06-11T03:21:07.582Z,37.80
2018-06-11T03:22:07.600Z,36.90
2018-06-11T03:23:07.544Z,36.20
2018-06-11T03:24:07.545Z,37.30
2018-06-11T03:25:07.477Z,35.60
2018-06-11T03:26:07.520Z,35.30
2018-06-11T03:27:07.419Z,35.80
2018-06-11T03:28:07.389Z,35.30
2018-06-11T03:29:07.344Z,36.20
2018-06-11T03:30:07.299Z,38.00
2018-06-11T03:31:07.328Z,36.80
2018-06-11T03:32:07.217Z,37.30
2018-06-11T03:33:07.250Z,36.90
2018-06-11T03:34:07.224Z,37.30
2018-06-11T03:35:07.229Z,37.30
2018-06-11T03:36:07.134Z,34.10
2018-06-11T03:37:07.091Z,33.10
2018-06-11T03:38:07.031Z,33.00
2018-06-11T03:39:06.995Z,32.80
2018-06-11T03:40:06.956Z,31.90
2018-06-11T03:41:06.939Z,32.60
2018-06-11T03:42:07.045Z,32.70
2018-06-11T03:43:06.956Z,32.60
2018-06-11T03:44:06.917Z,30.80
2018-06-11T03:45:06.853Z,30.60
2018-06-11T03:46:06.808Z,31.60
2018-06-11T03:47:06.774Z,31.50
2018-06-11T03:48:06.729Z,30.90
2018-06-11T03:49:06.673Z,31.10
2018-06-11T03:50:07.448Z,30.70
2018-06-11T03:51:06.696Z,30.20
2018-06-11T03:52:06.626Z,31.80
2018-06-11T03:53:06.588Z,30.30
2018-06-11T03:54:06.511Z,32.50
2018-06-11T03:55:06.527Z,29.00
2018-06-11T03:56:06.433Z,29.90
2018-06-11T03:57:06.531Z,29.10
2018-06-11T03:58:06.416Z,29.30
2018-06-11T03:59:06.420Z,30.30
2018-06-11T04:00:06.383Z,30.60
2018-06-11T04:01:06.289Z,28.80
2018-06-11T04:02:06.264Z,29.80
2018-06-11T04:03:06.239Z,27.10
2018-06-11T04:04:06.194Z,27.50
2018-06-11T04:05:06.192Z,28.70
2018-06-11T04:06:06.113Z,28.60
2018-06-11T04:07:06.165Z,29.70
2018-06-11T04:08:06.071Z,30.60
2018-06-11T04:09:06.041Z,30.80
2018-06-11T04:10:06.007Z,32.60
2018-06-11T04:11:06.055Z,30.90
2018-06-11T04:12:05.996Z,31.60
2018-06-11T04:13:05.959Z,30.70
2018-06-11T04:14:05.890Z,31.00
2018-06-11T04:15:05.851Z,31.00
2018-06-11T04:16:05.829Z,31.20
2018-06-11T04:17:05.806Z,30.10
2018-06-11T04:18:05.786Z,27.50
2018-06-11T04:19:05.704Z,27.10
2018-06-11T04:20:05.678Z,24.90
2018-06-11T04:21:05.681Z,26.80
2018-06-11T04:22:05.648Z,25.30
2018-06-11T04:23:05.604Z,23.90
2018-06-11T04:24:05.568Z,22.80
2018-06-11T04:25:05.544Z,25.70
2018-06-11T04:26:05.542Z,25.70
2018-06-11T04:27:05.495Z,25.40
2018-06-11T04:28:05.496Z,24.60
2018-06-11T04:29:05.433Z,23.10
2018-06-11T04:30:05.365Z,22.80
2018-06-11T04:31:05.380Z,24.20
2018-06-11T04:32:05.308Z,24.20
2018-06-11T04:33:05.270Z,22.00
2018-06-11T04:34:05.283Z,20.20
2018-06-11T04:35:05.218Z,22.50
2018-06-11T04:36:05.177Z,23.00
2018-06-11T04:37:05.960Z,29.30
2018-06-11T04:38:05.177Z,25.60
2018-06-11T04:39:05.080Z,29.10
2018-06-11T04:40:05.066Z,37.50
2018-06-11T04:41:05.007Z,40.00
2018-06-11T04:42:05.025Z,38.80
2018-06-11T04:43:04.978Z,40.70
2018-06-11T04:44:04.918Z,39.80
2018-06-11T04:45:04.879Z,42.40
2018-06-11T04:46:04.853Z,39.20
2018-06-11T04:47:04.854Z,40.60
2018-06-11T04:48:04.810Z,38.40
2018-06-11T04:49:04.800Z,36.50
2018-06-11T04:50:04.709Z,38.60
2018-06-11T04:51:04.722Z,37.40
2018-06-11T04:52:04.681Z,38.10
2018-06-11T04:53:04.665Z,38.40
2018-06-11T04:54:04.583Z,36.80
2018-06-11T04:55:04.582Z,39.50
2018-06-11T04:56:04.628Z,39.40
2018-06-11T04:57:04.608Z,39.00
2018-06-11T04:58:04.535Z,40.70
2018-06-11T04:59:04.439Z,39.80
2018-06-11T05:00:04.434Z,39.80
2018-06-11T05:01:04.460Z,39.30
2018-06-11T05:02:04.439Z,40.70
2018-06-11T05:03:04.332Z,40.20
2018-06-11T05:04:04.330Z,41.60
2018-06-11T05:05:04.290Z,41.00
2018-06-11T05:06:04.222Z,39.80
2018-06-11T05:07:04.211Z,40.60
2018-06-11T05:08:04.177Z,38.70
2018-06-11T05:09:04.129Z,39.30
2018-06-11T05:10:04.170Z,38.00
2018-06-11T05:11:04.083Z,40.30
2018-06-11T05:12:04.112Z,39.00
2018-06-11T05:13:04.069Z,39.00
2018-06-11T05:14:04.128Z,38.10
2018-06-11T05:15:03.947Z,38.70
2018-06-11T05:16:03.958Z,38.70
2018-06-11T05:17:03.893Z,38.30
2018-06-11T05:18:03.832Z,37.10
2018-06-11T05:19:03.846Z,36.80
2018-06-11T05:20:03.851Z,38.00
2018-06-11T05:21:03.803Z,37.90
2018-06-11T05:22:03.708Z,38.60
2018-06-11T05:23:03.688Z,38.10
2018-06-11T05:24:03.661Z,37.60
2018-06-11T05:25:03.692Z,37.80
2018-06-11T05:26:03.649Z,39.20
2018-06-11T05:27:03.575Z,36.90
2018-06-11T05:28:03.550Z,38.90
2018-06-11T05:29:03.553Z,38.50
2018-06-11T05:30:03.529Z,39.30
2018-06-11T05:31:03.443Z,37.40
2018-06-11T05:32:03.491Z,36.20
2018-06-11T05:33:03.473Z,37.00
2018-06-11T05:34:03.403Z,37.60
2018-06-11T05:35:03.364Z,37.50
2018-06-11T05:36:03.290Z,38.40
2018-06-11T05:37:03.307Z,36.50
2018-06-11T05:38:03.352Z,36.70
2018-06-11T05:39:03.191Z,36.80
2018-06-11T05:40:03.152Z,36.30
2018-06-11T05:41:03.168Z,37.90
2018-06-11T05:42:03.977Z,37.20
2018-06-11T05:43:03.087Z,37.80
2018-06-11T05:44:03.063Z,36.00
2018-06-11T05:45:03.052Z,37.50
2018-06-11T05:46:03.026Z,38.20
2018-06-11T05:47:03.483Z,35.90
2018-06-11T05:48:02.979Z,37.00
2018-06-11T05:49:02.942Z,36.90
2018-06-11T05:50:02.938Z,37.00
2018-06-11T05:51:02.834Z,37.90
2018-06-11T05:52:02.831Z,36.80
2018-06-11T05:53:02.730Z,39.00
2018-06-11T05:54:02.752Z,39.70
2018-06-11T05:55:02.682Z,43.40
2018-06-11T05:56:02.741Z,44.10
2018-06-11T05:57:02.613Z,43.00
2018-06-11T05:58:02.623Z,42.70
2018-06-11T05:59:02.585Z,45.00
2018-06-11T06:00:02.575Z,45.90
2018-06-11T06:01:02.515Z,44.40
2018-06-11T06:02:02.548Z,45.90
2018-06-11T06:03:02.464Z,46.70
2018-06-11T06:04:02.421Z,45.40
2018-06-11T06:05:02.409Z,46.40
2018-06-11T06:06:02.445Z,47.30
2018-06-11T06:07:02.395Z,47.20
2018-06-11T06:08:02.298Z,46.80
2018-06-11T06:09:02.296Z,48.00
2018-06-11T06:10:02.274Z,47.40
2018-06-11T06:11:02.230Z,48.90
2018-06-11T06:12:02.136Z,45.60
2018-06-11T06:13:02.104Z,45.30
2018-06-11T06:14:02.119Z,42.80
2018-06-11T06:15:02.082Z,44.70
2018-06-11T06:16:02.025Z,44.40
2018-06-11T06:17:02.004Z,44.30
2018-06-11T06:18:02.006Z,45.40
2018-06-11T06:19:01.930Z,45.50
2018-06-11T06:20:01.877Z,46.20
2018-06-11T06:21:01.948Z,45.70
2018-06-11T06:22:01.838Z,47.80
2018-06-11T06:23:01.782Z,49.70
2018-06-11T06:24:01.756Z,49.60
2018-06-11T06:25:01.807Z,50.10
2018-06-11T06:26:01.717Z,50.80
2018-06-11T06:27:01.656Z,49.30
2018-06-11T06:28:01.640Z,49.10
2018-06-11T06:29:01.645Z,50.10
2018-06-11T06:30:01.601Z,48.50
2018-06-11T06:31:01.567Z,50.70
2018-06-11T06:32:01.513Z,48.90
2018-06-11T06:33:01.479Z,48.80
2018-06-11T06:34:01.472Z,50.00
2018-06-11T06:35:01.442Z,49.40
2018-06-11T06:36:01.374Z,48.80
2018-06-11T06:37:01.398Z,52.30
2018-06-11T06:38:01.364Z,52.90
2018-06-11T06:39:01.305Z,54.50
2018-06-11T06:40:01.277Z,53.20
2018-06-11T06:41:01.281Z,52.90
2018-06-11T06:42:01.303Z,52.80
2018-06-11T06:43:01.249Z,52.30
2018-06-11T06:44:01.259Z,55.80
2018-06-11T06:45:01.182Z,54.60
2018-06-11T06:46:01.095Z,57.00
2018-06-11T06:47:01.069Z,56.90
2018-06-11T06:48:01.023Z,57.80
2018-06-11T06:49:01.056Z,58.00
2018-06-11T06:50:00.975Z,55.60
2018-06-11T06:51:00.928Z,56.70
2018-06-11T06:52:00.978Z,58.50
2018-06-11T06:53:00.998Z,59.50
2018-06-11T06:54:00.879Z,58.80
2018-06-11T06:55:00.780Z,59.80
2018-06-11T06:56:00.821Z,57.20
2018-06-11T06:57:00.721Z,57.10
2018-06-11T06:58:00.694Z,59.80
2018-06-11T06:59:00.733Z,59.70
2018-06-11T07:00:00.651Z,57.90
2018-06-11T07:01:00.661Z,59.50
2018-06-11T07:02:00.609Z,61.30
2018-06-11T07:03:00.528Z,60.10
2018-06-11T07:04:00.517Z,59.40
2018-06-11T07:05:00.468Z,62.90
2018-06-11T07:06:00.533Z,62.40
2018-06-11T07:07:00.420Z,64.80
2018-06-11T07:08:00.473Z,64.50
2018-06-11T07:09:00.381Z,63.70
2018-06-11T07:10:00.367Z,63.30
2018-06-11T07:11:00.317Z,62.50
2018-06-11T07:12:00.337Z,66.50
2018-06-11T07:13:00.228Z,62.50
2018-06-11T07:14:00.199Z,65.00
2018-06-11T07:15:00.168Z,60.90
2018-06-11T07:16:00.139Z,67.50
2018-06-11T07:17:00.088Z,69.60
2018-06-11T07:18:00.058Z,71.40
2018-06-11T07:19:00.049Z,70.80
2018-06-11T07:20:00.010Z,70.90
2018-06-11T07:20:59.969Z,75.60
2018-06-11T07:21:59.944Z,70.20
2018-06-11T07:22:59.933Z,70.70
2018-06-11T07:23:59.874Z,71.90
2018-06-11T07:24:59.851Z,73.70
2018-06-11T07:25:59.818Z,75.50
2018-06-11T07:26:59.882Z,72.60
2018-06-11T07:27:59.783Z,71.80
2018-06-11T07:28:59.785Z,72.30
2018-06-11T07:29:59.724Z,75.40
2018-06-11T07:30:59.656Z,70.20
2018-06-11T07:31:59.637Z,71.50
2018-06-11T07:32:59.604Z,72.40
2018-06-11T07:33:59.600Z,74.40
2018-06-11T07:34:59.588Z,73.00
2018-06-11T07:35:59.563Z,68.20
2018-06-11T07:36:59.482Z,74.60
2018-06-11T07:37:59.477Z,70.40
2018-06-11T07:38:59.431Z,71.20
2018-06-11T07:39:59.409Z,74.20
2018-06-11T07:40:59.394Z,76.90
2018-06-11T07:41:59.305Z,77.60
2018-06-11T07:42:59.325Z,84.90
2018-06-11T07:43:59.270Z,85.70
2018-06-11T07:44:59.247Z,82.90
2018-06-11T07:45:59.207Z,81.90
2018-06-11T07:46:59.167Z,87.00
2018-06-11T07:47:59.179Z,81.50
2018-06-11T07:48:59.106Z,84.30
2018-06-11T07:49:59.075Z,84.20
2018-06-11T07:51:00.032Z,86.70
2018-06-11T07:51:59.530Z,94.80
2018-06-11T07:52:58.995Z,94.60
2018-06-11T07:53:58.942Z,96.30
2018-06-11T07:54:58.956Z,97.80
2018-06-11T07:55:58.931Z,96.50
2018-06-11T07:56:58.855Z,99.80
2018-06-11T07:57:58.873Z,101.40
2018-06-11T07:58:58.811Z,102.40
2018-06-11T07:59:58.856Z,103.60
2018-06-11T08:00:58.754Z,107.40
2018-06-11T08:01:58.780Z,109.40
2018-06-11T08:02:58.724Z,112.10
2018-06-11T08:03:58.672Z,115.80
2018-06-11T08:04:58.623Z,112.50
2018-06-11T08:05:58.601Z,114.00
2018-06-11T08:06:58.580Z,116.90
2018-06-11T08:07:58.569Z,118.80
2018-06-11T08:08:58.513Z,117.30
2018-06-11T08:09:58.462Z,115.90
2018-06-11T08:10:58.508Z,115.80
2018-06-11T08:11:58.395Z,116.30
2018-06-11T08:12:58.375Z,122.20
2018-06-11T08:13:58.350Z,116.60
2018-06-11T08:14:58.313Z,114.20
2018-06-11T08:15:58.282Z,122.80
2018-06-11T08:16:58.226Z,124.20
2018-06-11T08:17:58.198Z,120.90
2018-06-11T08:18:58.195Z,121.60
2018-06-11T08:19:58.165Z,116.70
2018-06-11T08:20:59.042Z,111.70
2018-06-11T08:21:58.165Z,120.50
2018-06-11T08:22:58.069Z,118.60
2018-06-11T08:23:58.026Z,117.80
2018-06-11T08:24:57.999Z,123.10
2018-06-11T08:25:58.542Z,121.80
2018-06-11T08:26:57.919Z,125.40
2018-06-11T08:27:57.937Z,124.80
2018-06-11T08:28:57.892Z,128.60
2018-06-11T08:29:57.833Z,129.70
2018-06-11T08:30:57.814Z,126.80
2018-06-11T08:31:57.766Z,129.40
2018-06-11T08:32:57.846Z,126.50
2018-06-11T08:33:57.768Z,119.50
2018-06-11T08:34:57.714Z,127.60
2018-06-11T08:35:57.658Z,124.70
2018-06-11T08:36:57.720Z,124.10
2018-06-11T08:37:58.540Z,130.40
2018-06-11T08:38:57.613Z,116.80
2018-06-11T08:39:57.552Z,120.80
2018-06-11T08:40:57.494Z,124.40
2018-06-11T08:41:57.461Z,123.00
2018-06-11T08:42:57.453Z,120.00
2018-06-11T08:43:57.384Z,127.00
2018-06-11T08:44:57.372Z,120.90
2018-06-11T08:45:57.353Z,121.70
2018-06-11T08:46:57.297Z,114.20
2018-06-11T08:47:57.261Z,111.10
2018-06-11T08:48:57.260Z,114.70
2018-06-11T08:49:57.219Z,111.60
2018-06-11T08:50:57.187Z,110.90
2018-06-11T08:51:57.177Z,111.40
2018-06-11T08:52:57.148Z,108.90
2018-06-11T08:53:57.082Z,100.90
2018-06-11T08:54:57.047Z,110.10
2018-06-11T08:55:57.019Z,100.60
2018-06-11T08:56:56.997Z,104.40
2018-06-11T08:57:56.965Z,104.50
2018-06-11T08:58:56.913Z,106.10
2018-06-11T08:59:56.920Z,105.20
2018-06-11T09:00:56.917Z,107.80
2018-06-11T09:01:56.841Z,108.60
2018-06-11T09:02:56.881Z,111.10
2018-06-11T09:03:56.767Z,112.00
2018-06-11T09:04:56.735Z,113.90
2018-06-11T09:05:56.710Z,115.90
2018-06-11T09:06:56.740Z,119.50
2018-06-11T09:07:56.671Z,112.00
2018-06-11T09:08:56.608Z,107.10
2018-06-11T09:09:56.596Z,103.50
2018-06-11T09:10:56.613Z,111.50
2018-06-11T09:11:56.518Z,109.00
2018-06-11T09:12:56.532Z,105.70
2018-06-11T09:13:56.531Z,104.40
2018-06-11T09:14:56.435Z,106.30
2018-06-11T09:15:56.428Z,108.30
2018-06-11T09:16:56.372Z,96.80
2018-06-11T09:17:56.367Z,103.30
2018-06-11T09:18:57.057Z,103.10
2018-06-11T09:19:56.309Z,105.20
2018-06-11T09:20:56.268Z,104.60
2018-06-11T09:21:57.058Z,103.40
2018-06-11T09:22:56.250Z,106.90
2018-06-11T09:23:56.149Z,106.40
2018-06-11T09:24:56.108Z,109.40
2018-06-11T09:25:56.093Z,106.50
2018-06-11T09:26:56.116Z,108.30
2018-06-11T09:27:56.025Z,102.70
2018-06-11T09:28:56.041Z,106.60
2018-06-11T09:29:55.968Z,108.70
2018-06-11T09:30:55.953Z,106.30
2018-06-11T09:31:55.984Z,107.60
2018-06-11T09:32:55.864Z,103.60
2018-06-11T09:33:55.924Z,106.70
2018-06-11T09:34:55.825Z,106.10
2018-06-11T09:35:55.784Z,105.70
2018-06-11T09:36:55.746Z,105.70
2018-06-11T09:37:55.708Z,103.30
2018-06-11T09:38:55.670Z,108.10
2018-06-11T09:39:55.664Z,105.20
2018-06-11T09:40:55.624Z,104.80
2018-06-11T09:41:55.588Z,100.80
2018-06-11T09:42:55.681Z,100.50
2018-06-11T09:43:55.671Z,98.30
2018-06-11T09:44:55.491Z,93.10
2018-06-11T09:45:55.464Z,100.50
2018-06-11T09:46:55.435Z,101.20
2018-06-11T09:47:55.455Z,102.10
2018-06-11T09:48:55.400Z,102.10
2018-06-11T09:49:55.368Z,105.20
2018-06-11T09:50:55.333Z,100.80
2018-06-11T09:51:55.324Z,103.30
2018-06-11T09:52:55.269Z,100.40
2018-06-11T09:53:55.292Z,99.60
2018-06-11T09:54:55.180Z,95.40
2018-06-11T09:55:55.209Z,94.70
2018-06-11T09:56:55.121Z,93.50
2018-06-11T09:57:55.175Z,96.20
2018-06-11T09:58:55.573Z,88.60
2018-06-11T09:59:55.101Z,90.20
2018-06-11T10:00:55.042Z,87.80
2018-06-11T10:01:55.067Z,93.00
2018-06-11T10:02:54.979Z,86.70
2018-06-11T10:03:54.910Z,92.40
2018-06-11T10:04:54.888Z,88.90
2018-06-11T10:05:54.848Z,88.30
2018-06-11T10:06:54.824Z,93.00
2018-06-11T10:07:54.794Z,93.10
2018-06-11T10:08:54.759Z,91.50
2018-06-11T10:09:54.774Z,88.50
2018-06-11T10:10:54.685Z,92.50
2018-06-11T10:11:54.669Z,89.50
2018-06-11T10:12:54.699Z,92.70
2018-06-11T10:13:54.625Z,87.80
2018-06-11T10:14:54.594Z,83.80
2018-06-11T10:15:54.557Z,84.60
2018-06-11T10:16:54.533Z,90.40
2018-06-11T10:17:54.528Z,83.70
2018-06-11T10:18:54.459Z,86.30
2018-06-11T10:19:54.455Z,87.50
2018-06-11T10:20:54.397Z,85.30
2018-06-11T10:21:54.376Z,82.90
2018-06-11T10:22:54.350Z,86.50
2018-06-11T10:23:54.312Z,89.10
2018-06-11T10:24:54.283Z,86.70
2018-06-11T10:25:54.237Z,88.60
2018-06-11T10:26:54.211Z,81.80
2018-06-11T10:27:54.227Z,82.60
2018-06-11T10:28:54.147Z,81.10
2018-06-11T10:29:54.129Z,81.60
2018-06-11T10:30:54.098Z,81.00
2018-06-11T10:31:54.054Z,79.70
2018-06-11T10:32:54.054Z,82.00
2018-06-11T10:33:54.031Z,82.10
2018-06-11T10:34:54.034Z,84.00
2018-06-11T10:35:53.949Z,86.00
2018-06-11T10:36:53.946Z,83.50
2018-06-11T10:37:53.950Z,83.50
2018-06-11T10:38:53.867Z,83.60
2018-06-11T10:39:53.835Z,82.20
2018-06-11T10:40:53.802Z,83.70
2018-06-11T10:41:53.809Z,85.30
2018-06-11T10:42:53.762Z,85.70
2018-06-11T10:43:53.723Z,83.80
2018-06-11T10:44:53.704Z,84.80
2018-06-11T10:45:53.667Z,83.80
2018-06-11T10:46:53.675Z,85.10
2018-06-11T10:47:53.604Z,84.20
2018-06-11T10:48:53.628Z,84.60
2018-06-11T10:49:53.522Z,84.40
2018-06-11T10:50:53.501Z,84.00
2018-06-11T10:51:53.481Z,83.80
2018-06-11T10:52:53.450Z,84.00
2018-06-11T10:53:53.416Z,82.90
2018-06-11T10:54:53.393Z,85.20
2018-06-11T10:55:53.357Z,86.50
2018-06-11T10:56:53.334Z,83.50
2018-06-11T10:57:53.315Z,85.50
2018-06-11T10:58:53.287Z,84.50
2018-06-11T10:59:53.236Z,85.90
2018-06-11T11:00:53.224Z,88.00
2018-06-11T11:01:53.185Z,87.90
2018-06-11T11:02:53.158Z,88.60
2018-06-11T11:03:53.130Z,87.40
2018-06-11T11:04:53.103Z,87.30
2018-06-11T11:05:53.196Z,84.90
2018-06-11T11:06:53.046Z,87.80
2018-06-11T11:07:53.013Z,88.30
2018-06-11T11:08:53.065Z,87.60
2018-06-11T11:09:52.975Z,88.30
2018-06-11T11:10:52.928Z,86.50
2018-06-11T11:11:52.937Z,85.70
2018-06-11T11:12:52.869Z,86.90
2018-06-11T11:13:52.868Z,86.30
2018-06-11T11:14:52.854Z,89.10
2018-06-11T11:15:52.801Z,87.70
2018-06-11T11:16:52.776Z,82.60
2018-06-11T11:17:52.766Z,82.70
2018-06-11T11:18:52.698Z,83.20
2018-06-11T11:19:52.701Z,80.50
2018-06-11T11:20:52.666Z,85.10
2018-06-11T11:21:52.759Z,82.60
2018-06-11T11:22:52.626Z,83.90
2018-06-11T11:23:52.630Z,83.90
2018-06-11T11:24:52.588Z,82.20
2018-06-11T11:25:52.512Z,86.60
2018-06-11T11:26:52.558Z,83.60
2018-06-11T11:27:52.485Z,82.50
2018-06-11T11:28:52.449Z,80.70
2018-06-11T11:29:52.401Z,84.10
2018-06-11T11:30:52.389Z,75.10
2018-06-11T11:31:52.348Z,78.60
2018-06-11T11:32:52.402Z,82.70
2018-06-11T11:33:52.388Z,75.70
2018-06-11T11:34:52.281Z,75.20
2018-06-11T11:35:52.263Z,74.10
2018-06-11T11:36:52.215Z,77.20
2018-06-11T11:37:52.231Z,78.00
2018-06-11T11:38:52.170Z,77.40
2018-06-11T11:39:52.141Z,79.50
2018-06-11T11:40:52.100Z,77.70
2018-06-11T11:41:52.119Z,81.30
2018-06-11T11:42:52.080Z,79.70
2018-06-11T11:43:52.120Z,78.00
2018-06-11T11:44:52.623Z,75.70
2018-06-11T11:45:51.957Z,75.70
2018-06-11T11:46:51.976Z,76.40
2018-06-11T11:47:51.944Z,76.30
2018-06-11T11:48:51.982Z,75.50
2018-06-11T11:49:51.840Z,74.90
2018-06-11T11:50:51.846Z,74.10
2018-06-11T11:51:51.817Z,73.70
2018-06-11T11:52:51.832Z,75.50
2018-06-11T11:53:51.747Z,75.00
2018-06-11T11:54:51.810Z,73.10
2018-06-11T11:55:51.698Z,74.80
2018-06-11T11:56:51.644Z,72.10
2018-06-11T11:57:51.703Z,72.30
2018-06-11T11:58:51.620Z,70.50
2018-06-11T11:59:51.647Z,69.60
2018-06-11T12:00:52.118Z,70.50
2018-06-11T12:01:51.617Z,69.30
2018-06-11T12:02:51.601Z,69.20
2018-06-11T12:03:51.485Z,67.90
2018-06-11T12:04:51.459Z,68.50
2018-06-11T12:05:51.489Z,68.50
2018-06-11T12:06:51.388Z,66.50
2018-06-11T12:07:51.356Z,66.40
2018-06-11T12:08:51.348Z,66.50
2018-06-11T12:09:51.301Z,67.30
2018-06-11T12:10:51.286Z,63.60
2018-06-11T12:11:51.310Z,65.50
2018-06-11T12:12:51.244Z,66.40
2018-06-11T12:13:51.236Z,64.80
2018-06-11T12:14:51.189Z,63.40
2018-06-11T12:15:51.179Z,65.60
2018-06-11T12:16:51.137Z,66.00
2018-06-11T12:17:51.201Z,66.90
2018-06-11T12:18:51.628Z,63.00
2018-06-11T12:19:51.055Z,64.40
2018-06-11T12:20:51.019Z,64.10
2018-06-11T12:21:50.988Z,63.40
2018-06-11T12:22:50.960Z,63.20
2018-06-11T12:23:50.934Z,62.30
2018-06-11T12:24:50.961Z,61.60
2018-06-11T12:25:50.923Z,62.80
2018-06-11T12:26:50.878Z,59.20
2018-06-11T12:27:50.853Z,59.80
2018-06-11T12:28:50.806Z,62.30
2018-06-11T12:29:51.631Z,63.10
2018-06-11T12:30:50.775Z,62.20
2018-06-11T12:31:50.724Z,61.70
2018-06-11T12:32:50.699Z,62.90
2018-06-11T12:33:50.659Z,63.00
2018-06-11T12:34:50.724Z,64.50
2018-06-11T12:35:50.623Z,63.60
2018-06-11T12:36:50.701Z,64.60
2018-06-11T12:37:50.573Z,64.30
2018-06-11T12:38:50.563Z,64.30
2018-06-11T12:39:50.613Z,60.10
2018-06-11T12:40:50.524Z,64.10
2018-06-11T12:41:50.459Z,60.40
2018-06-11T12:42:50.510Z,61.00
2018-06-11T12:43:50.398Z,62.50
2018-06-11T12:44:50.384Z,60.50
2018-06-11T12:45:50.385Z,61.20
2018-06-11T12:46:50.359Z,62.60
2018-06-11T12:47:50.313Z,61.50